Terminal Aerodrome Forecast
Issued by NWS Bismarck, ND

Home | Current Version | Previous Version | Graphics & Text | Print | Product List | Glossary On
Versions: 1 2 3 4 5 6 7 8 9 10 11 12 13 14 15 16 17 18 19 20 21 22 23
000
FTUS43 KBIS 251517 AAC
TAFBIS
TAF AMD
KBIS 251517Z 2515/2612 25004KT 1SM -SN OVC030
     FM251700 31004KT P6SM VCSH OVC030
     FM260200 16007KT P6SM VCSH BKN025
     FM260400 21005KT 5SM -SN OVC020
     FM260900 34012G20KT P6SM SCT015=

USA.gov is the U.S. government's official web portal to all federal, state and local government web resources and services.